createdAt,value
2023-05-13T00:00:05.697Z,11.93
2023-05-13T00:04:15.059Z,12.43
2023-05-13T00:08:24.435Z,11.57
2023-05-13T00:12:35.525Z,12.13
2023-05-13T00:16:45.171Z,13.17
2023-05-13T00:20:54.685Z,12.57
2023-05-13T00:25:04.502Z,13.67
2023-05-13T00:29:15.317Z,13.87
2023-05-13T00:33:25.870Z,13.70
2023-05-13T00:37:35.091Z,13.90
2023-05-13T00:41:44.674Z,14.27
2023-05-13T00:45:55.988Z,13.53
2023-05-13T00:50:06.217Z,15.67
2023-05-13T00:54:15.511Z,13.47
2023-05-13T00:58:24.821Z,14.20
2023-05-13T01:02:42.078Z,12.87
2023-05-13T01:06:59.875Z,13.97
2023-05-13T01:11:15.553Z,13.37
2023-05-13T01:15:32.393Z,13.50
2023-05-13T01:19:46.432Z,13.03
2023-05-13T01:23:57.790Z,11.87
2023-05-13T01:28:08.317Z,11.57
2023-05-13T01:32:18.757Z,11.87
2023-05-13T01:36:28.311Z,11.57
2023-05-13T01:40:40.390Z,11.20
2023-05-13T01:44:49.910Z,10.20
2023-05-13T01:48:59.350Z,11.30
2023-05-13T01:53:09.180Z,10.63
2023-05-13T01:57:20.418Z,9.43
2023-05-13T02:01:29.996Z,9.93
2023-05-13T02:05:39.624Z,9.70
2023-05-13T02:09:49.270Z,10.47
2023-05-13T02:14:00.345Z,10.43
2023-05-13T02:18:09.799Z,10.37
2023-05-13T02:22:19.302Z,9.60
2023-05-13T02:26:28.883Z,9.77
2023-05-13T02:30:39.811Z,10.43
2023-05-13T02:34:49.377Z,9.43
2023-05-13T02:38:59.251Z,9.23
2023-05-13T02:43:08.614Z,9.67
2023-05-13T02:47:19.598Z,9.07
2023-05-13T02:51:29.055Z,9.17
2023-05-13T02:55:38.688Z,9.60
2023-05-13T02:59:48.018Z,8.60
2023-05-13T03:03:59.112Z,8.47
2023-05-13T03:08:08.588Z,9.20
2023-05-13T03:12:18.450Z,8.33
2023-05-13T03:16:27.760Z,7.90
2023-05-13T03:20:39.041Z,8.63
2023-05-13T03:24:49.278Z,8.23
2023-05-13T03:28:58.547Z,8.17
2023-05-13T03:33:07.918Z,7.73
2023-05-13T03:37:19.625Z,8.07
2023-05-13T03:41:29.429Z,7.30
2023-05-13T03:45:38.632Z,6.83
2023-05-13T03:49:49.333Z,6.73
2023-05-13T03:54:00.518Z,5.77
2023-05-13T03:58:19.458Z,6.50
2023-05-13T04:02:29.148Z,6.33
2023-05-13T04:06:38.505Z,6.73
2023-05-13T04:10:49.427Z,7.60
2023-05-13T04:14:58.829Z,8.40
2023-05-13T04:19:08.369Z,7.20
2023-05-13T04:23:18.055Z,7.13
2023-05-13T04:27:28.916Z,7.30
2023-05-13T04:31:38.268Z,8.27
2023-05-13T04:35:47.507Z,7.93
2023-05-13T04:39:56.744Z,7.73
2023-05-13T04:44:07.958Z,8.93
2023-05-13T04:48:17.308Z,7.93
2023-05-13T04:52:26.569Z,7.43
2023-05-13T04:56:36.112Z,8.77
2023-05-13T05:00:47.179Z,8.03
2023-05-13T05:04:56.427Z,7.27
2023-05-13T05:09:05.937Z,7.37
2023-05-13T05:13:15.233Z,7.30
2023-05-13T05:17:28.228Z,7.20
2023-05-13T05:21:37.637Z,7.97
2023-05-13T05:25:47.043Z,8.13
2023-05-13T05:29:56.934Z,9.10
2023-05-13T05:34:07.873Z,10.13
2023-05-13T05:38:18.843Z,10.03
2023-05-13T05:42:28.086Z,10.33
2023-05-13T05:46:37.461Z,9.67
2023-05-13T05:50:49.303Z,10.03
2023-05-13T05:54:58.650Z,12.00
2023-05-13T05:59:07.987Z,10.57
2023-05-13T06:03:17.669Z,11.17
2023-05-13T06:07:28.647Z,9.70
2023-05-13T06:11:38.064Z,9.90
2023-05-13T06:15:47.304Z,10.50
2023-05-13T06:19:56.540Z,11.33
2023-05-13T06:24:07.627Z,13.27
2023-05-13T06:28:16.869Z,13.07
2023-05-13T06:32:26.180Z,13.07
2023-05-13T06:36:35.605Z,13.97
2023-05-13T06:40:46.573Z,13.10
2023-05-13T06:44:56.078Z,13.07
2023-05-13T06:49:05.366Z,15.27
2023-05-13T06:53:14.594Z,16.57
2023-05-13T06:57:32.301Z,16.30
2023-05-13T07:01:48.240Z,15.53
2023-05-13T07:06:00.022Z,15.07
2023-05-13T07:10:13.621Z,16.53
2023-05-13T07:14:44.669Z,18.43
2023-05-13T07:18:54.585Z,15.20
2023-05-13T07:23:03.879Z,15.37
2023-05-13T07:27:12.979Z,18.13
2023-05-13T07:31:24.881Z,17.93
2023-05-13T07:35:34.379Z,16.20
2023-05-13T07:39:43.506Z,16.40
2023-05-13T07:43:53.825Z,18.07
2023-05-13T07:48:04.693Z,17.57
2023-05-13T07:56:44.524Z,15.80
2023-05-13T08:00:53.962Z,14.83
2023-05-13T08:05:07.485Z,14.17
2023-05-13T08:09:25.200Z,14.90
2023-05-13T08:13:34.476Z,15.47
2023-05-13T08:17:43.857Z,15.00
2023-05-13T08:21:54.821Z,13.70
2023-05-13T08:26:04.181Z,14.50
2023-05-13T08:30:14.527Z,13.27
2023-05-13T08:34:23.909Z,13.83
2023-05-13T08:38:35.077Z,13.80
2023-05-13T08:47:18.696Z,15.80
2023-05-13T08:51:28.572Z,15.83
2023-05-13T08:55:41.851Z,14.17
2023-05-13T08:59:51.793Z,13.53
2023-05-13T09:04:03.992Z,14.23
2023-05-13T09:08:13.661Z,13.17
2023-05-13T09:12:49.746Z,14.40
2023-05-13T09:16:59.588Z,12.90
2023-05-13T09:21:25.510Z,14.27
2023-05-13T09:25:35.582Z,16.90
2023-05-13T09:29:46.400Z,13.93
2023-05-13T09:33:55.632Z,13.03
2023-05-13T09:38:15.293Z,12.90
2023-05-13T09:42:25.279Z,13.03
2023-05-13T09:46:36.162Z,12.43
2023-05-13T09:50:53.043Z,12.13
2023-05-13T09:55:05.049Z,11.77
2023-05-13T09:59:23.493Z,12.73
2023-05-13T10:03:34.955Z,12.60
2023-05-13T10:07:44.860Z,13.20
2023-05-13T10:11:54.813Z,13.43
2023-05-13T10:16:04.546Z,12.70
2023-05-13T10:20:16.101Z,13.57
2023-05-13T10:24:27.731Z,13.27
2023-05-13T10:28:37.815Z,13.37
2023-05-13T10:32:47.821Z,14.90
2023-05-13T10:37:22.090Z,14.10
2023-05-13T10:42:08.141Z,13.90
2023-05-13T10:46:18.633Z,13.77
2023-05-13T10:50:33.774Z,12.73
2023-05-13T10:54:45.533Z,14.97
2023-05-13T10:59:04.574Z,13.13
2023-05-13T11:03:43.032Z,16.17
2023-05-13T11:08:03.966Z,15.03
2023-05-13T11:12:17.817Z,16.73
2023-05-13T11:16:29.761Z,13.67
2023-05-13T11:20:51.665Z,13.47
2023-05-13T11:25:15.732Z,13.63
2023-05-13T11:29:44.512Z,13.67
2023-05-13T11:34:21.761Z,13.50
2023-05-13T11:38:34.925Z,14.33
2023-05-13T11:42:46.774Z,13.47
2023-05-13T11:46:59.919Z,13.20
2023-05-13T11:55:48.379Z,14.60
2023-05-13T12:00:21.697Z,12.17
2023-05-13T12:09:59.447Z,14.60
2023-05-13T12:14:09.471Z,15.33
2023-05-13T12:18:26.621Z,14.70
2023-05-13T12:22:36.409Z,15.37
2023-05-13T12:27:05.277Z,14.90
2023-05-13T12:36:47.703Z,13.87
2023-05-13T12:40:57.807Z,13.20
2023-05-13T12:45:09.884Z,14.47
2023-05-13T12:49:19.275Z,12.33
2023-05-13T12:53:28.744Z,12.60
2023-05-13T12:57:37.896Z,13.10
2023-05-13T13:02:14.053Z,13.07
2023-05-13T13:20:28.706Z,15.90
2023-05-13T13:24:38.072Z,14.90
2023-05-13T13:29:06.229Z,14.73
2023-05-13T13:33:37.372Z,15.67
2023-05-13T13:37:50.903Z,13.47
2023-05-13T13:42:00.067Z,14.03
2023-05-13T13:46:09.462Z,16.97
2023-05-13T13:50:19.229Z,14.73
2023-05-13T13:54:30.405Z,16.63
2023-05-13T13:58:40.933Z,15.80
2023-05-13T14:02:51.433Z,16.40
2023-05-13T14:07:04.468Z,14.17
2023-05-13T14:11:22.862Z,16.03
2023-05-13T14:15:45.845Z,16.60
2023-05-13T14:19:55.875Z,15.77
2023-05-13T14:33:29.293Z,15.23
2023-05-13T14:37:51.114Z,15.03
2023-05-13T14:42:04.207Z,15.27
2023-05-13T14:46:24.777Z,18.47
2023-05-13T14:50:38.054Z,17.73
2023-05-13T14:54:49.895Z,17.90
2023-05-13T14:59:16.745Z,16.63
2023-05-13T15:08:15.452Z,16.97
2023-05-13T15:12:24.660Z,18.33
2023-05-13T15:16:33.845Z,17.50
2023-05-13T15:20:43.353Z,16.77
2023-05-13T15:24:54.136Z,17.83
2023-05-13T15:29:03.166Z,18.60
2023-05-13T15:33:12.339Z,16.87
2023-05-13T15:37:21.585Z,17.93
2023-05-13T15:41:32.175Z,17.57
2023-05-13T15:45:41.391Z,16.63
2023-05-13T15:49:51.606Z,17.23
2023-05-13T15:54:01.243Z,16.33
2023-05-13T16:02:52.291Z,15.00
2023-05-13T16:07:01.670Z,15.10
2023-05-13T16:11:21.336Z,14.60
2023-05-13T16:16:18.885Z,13.67
2023-05-13T16:20:29.783Z,14.20
2023-05-13T16:24:39.213Z,14.40
2023-05-13T16:28:48.388Z,14.03
2023-05-13T16:32:57.626Z,14.47
2023-05-13T16:37:08.389Z,13.57
2023-05-13T16:41:19.264Z,14.30
2023-05-13T16:45:28.447Z,12.83
2023-05-13T16:49:37.923Z,12.47
2023-05-13T16:53:48.566Z,12.10
2023-05-13T16:57:57.776Z,12.47
2023-05-13T17:02:07.782Z,12.47
2023-05-13T17:06:16.976Z,11.63
2023-05-13T17:10:27.733Z,13.23
2023-05-13T17:14:36.893Z,11.53
2023-05-13T17:18:46.213Z,10.90
2023-05-13T17:22:56.537Z,11.50
2023-05-13T17:27:07.640Z,11.17
2023-05-13T17:31:16.871Z,11.20
2023-05-13T17:35:26.201Z,12.30
2023-05-13T17:39:35.468Z,11.13
2023-05-13T17:43:46.244Z,10.07
2023-05-13T17:47:55.468Z,10.37
2023-05-13T17:52:04.746Z,13.90
2023-05-13T17:56:13.935Z,10.37
2023-05-13T18:00:25.398Z,10.97
2023-05-13T18:04:34.600Z,11.30
2023-05-13T18:08:43.709Z,11.27
2023-05-13T18:12:53.278Z,10.30
2023-05-13T18:17:03.947Z,10.83
2023-05-13T18:21:13.066Z,10.40
2023-05-13T18:25:22.167Z,10.93
2023-05-13T18:29:31.506Z,11.27
2023-05-13T18:33:42.112Z,10.23
2023-05-13T18:37:51.629Z,10.10
2023-05-13T18:42:00.714Z,10.03
2023-05-13T18:46:09.992Z,10.43
2023-05-13T18:50:21.155Z,11.40
2023-05-13T18:54:30.589Z,11.77
2023-05-13T18:58:39.726Z,11.73
2023-05-13T19:02:48.924Z,11.87
2023-05-13T19:07:00.377Z,11.33
2023-05-13T19:11:09.694Z,11.80
2023-05-13T19:15:21.389Z,13.37
2023-05-13T19:19:30.666Z,11.70
2023-05-13T19:23:41.361Z,12.57
2023-05-13T19:27:50.878Z,13.17
2023-05-13T19:31:59.978Z,12.17
2023-05-13T19:36:10.386Z,11.77
2023-05-13T19:40:21.360Z,13.47
2023-05-13T19:44:32.179Z,12.50
2023-05-13T19:48:41.337Z,12.77
2023-05-13T19:52:50.523Z,13.73
2023-05-13T19:57:01.185Z,14.17
2023-05-13T20:01:12.146Z,13.40
2023-05-13T20:05:21.379Z,14.37
2023-05-13T20:09:30.525Z,15.80
2023-05-13T20:13:41.003Z,14.43
2023-05-13T20:17:50.329Z,15.10
2023-05-13T20:21:59.411Z,15.27
2023-05-13T20:26:08.618Z,16.73
2023-05-13T20:30:21.272Z,16.23
2023-05-13T20:34:30.923Z,17.30
2023-05-13T20:38:39.960Z,17.67
2023-05-13T20:42:49.487Z,17.03
2023-05-13T20:47:00.137Z,17.33
2023-05-13T20:51:09.203Z,19.00
2023-05-13T20:55:18.357Z,16.50
2023-05-13T20:59:27.418Z,19.20
2023-05-13T21:03:38.093Z,17.37
2023-05-13T21:07:47.238Z,18.77
2023-05-13T21:11:56.208Z,20.23
2023-05-13T21:16:06.004Z,21.30
2023-05-13T21:20:16.868Z,20.87
2023-05-13T21:24:25.978Z,22.67
2023-05-13T21:28:35.097Z,20.83
2023-05-13T21:32:44.257Z,20.37
2023-05-13T21:36:54.891Z,20.17
2023-05-13T21:41:03.991Z,18.17
2023-05-13T21:45:15.244Z,17.60
2023-05-13T21:49:24.273Z,17.10
2023-05-13T21:53:35.225Z,19.00
2023-05-13T21:57:44.539Z,21.47
2023-05-13T22:01:53.615Z,21.13
2023-05-13T22:06:02.730Z,20.83
2023-05-13T22:10:13.985Z,18.13
2023-05-13T22:14:23.095Z,16.83
2023-05-13T22:18:32.424Z,18.13
2023-05-13T22:22:41.650Z,23.23
2023-05-13T22:26:52.108Z,23.90
2023-05-13T22:31:01.936Z,26.30
2023-05-13T22:35:11.757Z,22.57
2023-05-13T22:39:20.878Z,24.23
2023-05-13T22:43:31.498Z,22.87
2023-05-13T22:47:40.669Z,22.70
2023-05-13T22:51:50.012Z,24.90
2023-05-13T22:55:59.195Z,22.40
2023-05-13T23:00:11.156Z,23.70
2023-05-13T23:04:20.355Z,22.07
2023-05-13T23:08:29.476Z,22.30
2023-05-13T23:12:38.667Z,20.83
2023-05-13T23:16:49.173Z,20.80
2023-05-13T23:20:58.419Z,22.67
2023-05-13T23:25:08.448Z,20.17
2023-05-13T23:29:17.534Z,21.57
2023-05-13T23:33:28.173Z,19.43
2023-05-13T23:37:37.879Z,19.73
2023-05-13T23:41:46.938Z,23.03
2023-05-13T23:45:56.332Z,20.53
2023-05-13T23:50:08.378Z,19.97
2023-05-13T23:54:17.469Z,24.37
2023-05-13T23:58:26.487Z,23.83
